Latest Weather Observations for Townsville

IDQ60801

Issued at 7:32 pm EST Sunday 23 April 2017 (issued every 30 minutes, with the page automatically refreshed every 10 minutes)

About weather observations | Map of weather stations | Latest weather observations for QLD | Other Formats
Station Details ID: 032040 Name: TOWNSVILLE AERO Lat: -19.25 Lon: 146.77 Height: 4.34 m
Data from the previous 72 hours. | See also: Recent months at Townsville
Date/Time
EST
Temp
°C
App
Temp
°C
Dew
Point
°C
Rel
Hum
%
Delta-T
°C
Wind Press
QNH
hPa
Press
MSL
hPa
Rain since
9am
mm
Dir  Spd
km/h
Gust
km/h
Spd
kts
Gust
kts
23/07:30pm 25.2 23.8 17.1 60 5.0 ESE 20 28 11 15 1016.8 1016.7 -
23/07:00pm 25.3 23.3 17.3 61 5.0 ESE 24 32 13 17 1016.4 1016.3 -
23/06:30pm 25.4 24.2 17.4 61 5.0 ESE 20 28 11 15 1016.2 1016.1 -
23/06:00pm 25.8 24.3 17.7 61 5.1 ESE 22 32 12 17 1016.0 1015.9 -
23/05:30pm 26.6 25.5 18.6 61 5.1 ESE 22 28 12 15 1015.6 1015.5 -
23/05:00pm 26.7 26.0 19.4 64 4.7 E 22 32 12 17 1015.2 1015.1 -
23/04:30pm 27.2 25.2 18.4 58 5.6 ENE 26 35 14 19 1014.8 1014.7 -
23/04:00pm 27.3 25.5 18.7 59 5.5 E 26 33 14 18 1014.9 1014.8 -
23/03:30pm 28.1 26.6 19.5 59 5.6 ENE 26 35 14 19 1014.8 1014.7 -
23/03:00pm 28.6 27.4 19.2 56 6.1 ENE 24 32 13 17 1014.8 1014.7 -
23/02:30pm 28.8 26.7 18.1 52 6.8 ENE 26 33 14 18 1015.2 1015.1 -
23/02:00pm 28.9 - 17.7 50 7.1 - - - - - 1015.4 1015.3 -
23/01:30pm 29.0 27.0 18.4 52 6.8 ENE 26 35 14 19 1015.7 1015.6 0.2
23/01:00pm 28.6 27.4 19.3 57 6.0 E 24 37 13 20 1016.1 1016.0 0.2
23/12:30pm 27.5 27.2 19.5 61 5.2 SE 20 28 11 15 1016.5 1016.4 0.2
23/12:00pm 27.8 27.5 19.1 59 5.6 E 19 28 10 15 1016.8 1016.7 0.2
23/11:30am 26.6 26.6 18.9 62 4.9 ESE 17 24 9 13 1017.3 1017.3 0.2
23/11:00am 26.8 28.6 19.5 64 4.7 SE 9 17 5 9 1017.6 1017.6 0.2
23/10:30am 25.2 27.4 19.3 70 3.8 SSE 6 11 3 6 1017.9 1017.9 0.2
23/10:00am 24.6 25.9 19.3 72 3.4 ESE 11 17 6 9 1018.1 1018.1 0.2
23/09:30am 25.0 24.4 18.5 67 4.1 SSE 19 26 10 14 1017.8 1017.8 0.0
23/09:12am 25.7 25.0 18.6 65 4.5 SSE 20 26 11 14 1017.7 1017.7 0.0
23/09:00am 25.0 24.8 18.5 67 4.1 SSE 17 22 9 12 1017.6 1017.6 1.6
23/08:30am 25.0 24.8 18.5 67 4.1 S 17 24 9 13 1017.3 1017.3 1.6
23/08:00am 23.6 24.2 19.5 78 2.6 SSW 15 20 8 11 1017.0 1017.0 1.6
23/07:30am 22.8 23.3 19.3 80 2.2 SSW 15 17 8 9 1016.7 1016.6 1.6
23/07:00am 22.1 22.7 19.4 85 1.7 S 15 19 8 10 1016.5 1016.4 1.6
23/06:30am 21.7 21.2 19.0 84 1.7 SSE 20 26 11 14 1016.6 1016.5 1.6
23/06:00am 20.9 21.9 18.7 87 1.4 SSW 11 13 6 7 1016.3 1016.2 1.6
23/05:30am 20.7 21.4 18.0 84 1.7 S 11 13 6 7 1016.1 1016.0 1.6
23/05:00am 20.4 21.2 18.1 87 1.4 SSW 11 13 6 7 1015.9 1015.8 1.6
23/04:30am 20.1 22.2 18.2 89 1.2 SW 4 9 2 5 1015.9 1015.8 1.6
23/04:00am 19.6 21.3 18.1 91 0.9 SW 6 9 3 5 1015.8 1015.7 1.6
23/03:30am 19.2 21.5 17.7 91 0.9 SSW 2 9 1 5 1015.6 1015.5 1.6
23/03:00am 20.1 21.7 18.2 89 1.2 SSW 7 9 4 5 1015.6 1015.5 1.6
23/02:30am 20.5 21.7 18.2 87 1.4 SSW 9 11 5 6 1015.9 1015.8 1.6
23/02:00am 20.3 22.9 18.5 89 1.1 SSW 2 7 1 4 1016.3 1016.2 1.6
23/01:30am 20.4 23.6 18.8 90 1.0 CALM 0 0 0 0 1016.5 1016.4 1.6
23/01:00am 20.9 22.7 18.7 87 1.4 SSE 7 9 4 5 1016.7 1016.6 1.6
23/12:30am 21.2 22.5 18.5 84 1.7 SE 9 9 5 5 1016.9 1016.9 1.6
23/12:00am 21.6 22.6 18.7 83 1.8 SE 11 13 6 7 1017.2 1017.2 1.6
 
Date/Time
EST
Temp
°C
App
Temp
°C
Dew
Point
°C
Rel
Hum
%
Delta-T
°C
Wind Press
QNH
hPa
Press
MSL
hPa
Rain since
9am
mm
Dir  Spd
km/h
Gust
km/h
Spd
kts
Gust
kts
22/11:30pm 22.6 22.8 18.6 78 2.5 SSE 15 20 8 11 1017.2 1017.2 1.6
22/11:00pm 21.7 23.2 18.8 83 1.8 SE 9 11 5 6 1017.4 1017.4 1.6
22/10:30pm 22.3 23.5 19.0 81 2.1 SE 11 13 6 7 1017.6 1017.6 1.6
22/10:00pm 23.0 23.7 18.9 78 2.6 ESE 13 15 7 8 1017.8 1017.8 1.6
22/09:30pm 23.2 24.5 19.3 79 2.5 SE 11 13 6 7 1017.9 1017.9 1.6
22/09:00pm 23.5 25.2 19.4 78 2.6 SE 9 13 5 7 1017.9 1017.9 1.6
22/08:30pm 23.8 24.9 19.6 77 2.7 SE 13 15 7 8 1017.7 1017.7 1.6
22/08:00pm 24.4 24.7 19.7 75 3.0 SE 17 28 9 15 1017.4 1017.4 1.6
22/07:30pm 24.8 23.8 19.7 73 3.3 ESE 24 37 13 20 1017.0 1017.0 1.6
22/07:00pm 24.8 23.0 19.5 72 3.4 ESE 28 35 15 19 1016.7 1016.6 1.6
22/06:30pm 25.1 23.7 18.8 68 4.0 ESE 24 37 13 20 1016.4 1016.3 1.6
22/06:00pm 25.2 24.6 18.9 68 4.0 E 20 32 11 17 1016.1 1016.0 1.6
22/05:30pm 25.4 24.9 19.0 67 4.1 E 20 30 11 16 1015.7 1015.6 1.6
22/05:00pm 25.8 24.5 18.2 63 4.8 E 22 30 12 16 1015.6 1015.5 1.6
22/04:30pm 26.2 25.1 17.2 57 5.6 E 19 26 10 14 1015.1 1015.0 1.6
22/04:00pm 26.4 24.7 18.0 60 5.3 E 24 32 13 17 1014.9 1014.8 1.6
22/03:30pm 27.4 26.1 18.1 57 5.9 E 22 32 12 17 1014.9 1014.8 1.6
22/03:00pm 27.2 25.8 18.0 57 5.8 ESE 22 32 12 17 1015.0 1014.9 1.6
22/02:30pm 26.5 24.9 16.6 54 6.1 ESE 20 28 11 15 1015.2 1015.1 1.6
22/02:00pm 26.0 25.5 19.1 65 4.4 ESE 20 30 11 16 1015.4 1015.3 1.6
22/01:30pm 25.3 24.1 18.3 65 4.4 SE 22 32 12 17 1015.9 1015.8 1.6
22/01:00pm 24.2 24.5 20.3 79 2.5 SE 19 26 10 14 1016.2 1016.1 1.6
22/12:44pm 23.7 23.1 20.5 82 2.1 ESE 24 32 13 17 1016.6 1016.5 1.6
22/12:30pm 23.7 23.1 22.0 90 1.1 ESE 28 35 15 19 1016.9 1016.9 1.6
22/12:27pm 23.5 23.4 21.4 88 1.4 ESE 24 35 13 19 1016.9 1016.9 1.6
22/12:01pm 22.7 23.6 21.5 93 0.8 ESE 19 26 10 14 1017.3 1017.3 1.6
22/12:00pm 22.7 23.5 21.3 92 0.9 ESE 19 26 10 14 1017.3 1017.3 1.6
22/11:49am 22.8 25.7 21.1 90 1.1 WNW 7 15 4 8 1017.6 1017.6 1.2
22/11:30am 22.8 25.3 21.1 90 1.1 WSW 9 15 5 8 1017.5 1017.5 1.0
22/11:00am 21.8 23.4 20.7 93 0.7 SW 13 17 7 9 1018.1 1018.1 0.8
22/10:44am 22.0 23.5 20.5 91 1.0 SW 13 20 7 11 1018.3 1018.3 0.6
22/10:30am 22.1 23.3 20.7 92 0.9 SW 15 17 8 9 1018.3 1018.3 0.6
22/10:12am 22.1 23.7 20.7 92 0.9 SSW 13 15 7 8 1018.4 1018.4 0.4
22/10:00am 21.8 23.0 20.7 93 0.7 SSW 15 19 8 10 1018.4 1018.4 0.4
22/09:30am 22.1 24.2 20.9 93 0.8 SE 11 17 6 9 1018.2 1018.2 0.4
22/09:23am 22.0 24.7 20.6 92 0.9 SE 7 11 4 6 1018.3 1018.3 0.4
22/09:16am 21.6 24.1 20.2 92 0.9 S 7 11 4 6 1018.3 1018.3 0.4
22/09:00am 21.2 23.7 20.3 95 0.6 W 7 11 4 6 1018.2 1018.2 3.4
22/08:48am 21.1 23.2 20.2 95 0.6 W 9 13 5 7 1018.0 1018.0 3.0
22/08:30am 21.2 23.4 20.4 95 0.5 W 9 13 5 7 1017.9 1017.9 2.6
22/08:00am 21.1 23.3 19.7 92 0.9 W 7 11 4 6 1017.7 1017.7 1.2
22/07:49am 21.4 23.1 20.2 93 0.8 WNW 11 13 6 7 1017.2 1017.2 0.4
22/07:38am 21.7 23.8 20.1 91 1.0 W 9 11 5 6 1017.0 1017.0 0.0
22/07:30am 22.3 24.6 19.8 86 1.6 WSW 7 9 4 5 1016.9 1016.9 0.0
22/07:00am 22.9 24.5 19.1 79 2.4 SE 9 15 5 8 1016.5 1016.4 0.0
22/06:30am 23.0 24.3 18.4 75 2.9 S 9 13 5 7 1016.1 1016.0 0.0
22/06:00am 22.9 23.8 18.3 75 2.9 SSE 11 15 6 8 1015.7 1015.6 0.0
22/05:30am 22.3 22.8 18.3 78 2.5 SSE 13 17 7 9 1015.3 1015.2 0.0
22/05:00am 22.6 23.0 18.1 76 2.8 SE 13 17 7 9 1015.2 1015.1 0.0
22/04:30am 23.1 22.8 18.3 74 3.0 SSE 17 22 9 12 1015.4 1015.3 0.0
22/04:00am 23.0 22.2 18.0 73 3.1 SE 19 28 10 15 1015.4 1015.3 0.0
22/03:30am 23.0 23.4 18.2 74 3.0 SSE 13 19 7 10 1015.5 1015.4 0.0
22/03:00am 23.4 23.0 18.1 72 3.3 SE 17 20 9 11 1015.8 1015.7 0.0
22/02:30am 22.7 23.5 18.2 76 2.8 SSW 11 13 6 7 1016.1 1016.0 0.0
22/02:00am 23.4 23.8 18.1 72 3.3 SSE 13 19 7 10 1016.1 1016.0 0.0
22/01:30am 23.3 23.7 18.2 73 3.2 SSE 13 17 7 9 1016.5 1016.4 0.0
22/01:00am 23.9 23.2 18.2 70 3.6 SE 19 28 10 15 1016.8 1016.7 0.0
22/12:30am 23.6 22.9 18.2 71 3.4 SSE 19 28 10 15 1017.1 1017.1 0.0
22/12:00am 23.4 23.6 18.5 74 3.1 SE 15 20 8 11 1017.4 1017.4 0.0
 
Date/Time
EST
Temp
°C
App
Temp
°C
Dew
Point
°C
Rel
Hum
%
Delta-T
°C
Wind Press
QNH
hPa
Press
MSL
hPa
Rain since
9am
mm
Dir  Spd
km/h
Gust
km/h
Spd
kts
Gust
kts
21/11:30pm 23.6 23.3 18.3 72 3.3 SSE 17 24 9 13 1017.4 1017.4 0.0
21/11:00pm 23.5 23.7 18.6 74 3.1 SE 15 22 8 12 1017.7 1017.7 0.0
21/10:30pm 23.6 23.9 18.7 74 3.1 SE 15 19 8 10 1017.8 1017.8 0.0
21/10:00pm 23.5 25.1 19.1 76 2.8 SE 9 11 5 6 1017.7 1017.7 0.0
21/09:30pm 23.6 24.4 19.0 75 2.9 ESE 13 17 7 9 1017.9 1017.9 0.0
21/09:00pm 24.3 25.1 19.1 73 3.3 SE 13 17 7 9 1017.8 1017.8 0.0
21/08:30pm 24.7 24.5 19.4 72 3.4 ESE 19 24 10 13 1017.6 1017.6 0.0
21/08:00pm 25.1 23.9 19.3 70 3.7 ESE 24 32 13 17 1017.3 1017.3 0.0
21/07:30pm 25.2 24.3 19.8 72 3.5 ESE 24 32 13 17 1017.0 1017.0 0.0
21/07:00pm 25.5 23.1 19.9 71 3.6 E 32 39 17 21 1016.4 1016.3 0.0
21/06:30pm 25.7 25.1 19.8 70 3.8 E 22 30 12 16 1016.2 1016.1 0.0
21/06:00pm 25.9 24.8 19.4 67 4.2 E 24 35 13 19 1015.9 1015.8 0.0
21/05:30pm 26.4 25.3 19.4 65 4.5 E 24 35 13 19 1015.8 1015.7 0.0
21/05:00pm 27.1 25.1 19.2 62 5.1 ESE 28 41 15 22 1015.6 1015.5 0.0
21/04:30pm 27.9 26.4 18.5 56 6.0 E 24 37 13 20 1015.5 1015.4 0.0
21/04:00pm 28.3 25.0 18.3 54 6.4 E 33 44 18 24 1015.4 1015.3 0.0
21/03:30pm 28.7 25.3 18.2 53 6.7 E 33 44 18 24 1015.2 1015.1 0.0
21/03:00pm 29.0 25.3 17.4 49 7.3 E 33 43 18 23 1015.2 1015.1 0.0
21/02:30pm 28.0 24.9 18.8 57 5.9 E 33 44 18 24 1015.2 1015.1 0.0
21/02:00pm 28.4 24.6 18.2 54 6.5 ENE 35 44 19 24 1015.2 1015.1 0.0
21/01:30pm 29.4 26.3 18.5 52 7.0 E 32 46 17 25 1015.3 1015.2 0.0
21/01:00pm 30.3 29.6 19.4 52 7.1 ESE 22 30 12 16 1015.8 1015.7 0.0
21/12:30pm 29.1 26.8 18.5 52 6.8 ESE 28 39 15 21 1016.3 1016.2 0.0
21/12:00pm 29.3 26.8 18.0 50 7.2 ESE 28 37 15 20 1016.8 1016.7 0.0
21/11:30am 28.2 24.7 17.4 52 6.8 ESE 32 41 17 22 1017.4 1017.4 0.0
21/11:00am 27.8 24.8 17.7 54 6.4 ESE 30 41 16 22 1017.8 1017.8 0.0
21/10:30am 27.8 24.3 18.0 55 6.2 ESE 33 50 18 27 1018.0 1018.0 0.0
21/10:25am 28.1 24.7 17.8 53 6.5 ESE 32 50 17 27 1018.0 1018.0 0.0
21/10:00am 27.8 25.2 17.8 54 6.3 SE 28 39 15 21 1017.9 1017.9 0.0
21/09:30am 27.4 24.9 18.1 57 5.9 SE 28 41 15 22 1017.9 1017.9 0.0
21/09:00am 27.2 25.5 18.2 58 5.7 SE 24 41 13 22 1017.9 1017.9 0.2
21/08:30am 25.9 24.8 17.8 61 5.1 SE 20 32 11 17 1017.7 1017.7 0.2
21/08:00am 25.2 24.3 17.7 63 4.7 SSE 19 24 10 13 1017.5 1017.5 0.2
21/07:30am 24.3 24.0 17.4 65 4.3 SSE 15 19 8 10 1017.2 1017.2 0.2
21/07:00am 23.3 23.2 16.9 67 3.9 S 13 19 7 10 1016.6 1016.5 0.0
21/06:30am 23.0 22.6 17.2 70 3.6 SSE 15 20 8 11 1016.4 1016.3 0.0
21/06:00am 23.4 22.6 17.1 67 3.9 SSE 17 24 9 13 1016.1 1016.0 0.0
21/05:30am 23.9 22.6 16.9 65 4.3 SSE 19 28 10 15 1015.8 1015.7 0.0
21/05:00am 23.9 23.4 16.9 65 4.3 SSE 15 22 8 12 1015.7 1015.6 0.0
21/04:30am 23.3 23.9 17.7 71 3.5 SW 11 11 6 6 1015.6 1015.5 0.0
21/04:00am 23.7 23.3 17.2 67 4.0 SSE 15 20 8 11 1015.4 1015.3 0.0
21/03:30am 23.7 22.9 17.2 67 4.0 SSE 17 20 9 11 1015.6 1015.5 0.0
21/03:00am 23.8 22.4 17.0 65 4.2 SSE 20 28 11 15 1015.7 1015.6 0.0
21/02:30am 23.9 21.6 16.7 64 4.4 SE 24 30 13 16 1015.9 1015.8 0.0
21/02:00am 24.1 22.3 17.0 64 4.4 SE 22 30 12 16 1016.0 1015.9 0.0
21/01:30am 24.2 23.9 17.4 65 4.2 SE 15 22 8 12 1016.4 1016.3 0.0
21/01:00am 24.5 23.9 17.6 65 4.3 SE 17 24 9 13 1016.9 1016.9 0.0
21/12:30am 24.4 23.3 17.7 66 4.2 SSE 20 28 11 15 1017.1 1017.1 0.0
21/12:00am 24.4 24.0 18.0 67 4.0 SE 17 22 9 12 1017.4 1017.4 0.0
 
Date/Time
EST
Temp
°C
App
Temp
°C
Dew
Point
°C
Rel
Hum
%
Delta-T
°C
Wind Press
QNH
hPa
Press
MSL
hPa
Rain since
9am
mm
Dir  Spd
km/h
Gust
km/h
Spd
kts
Gust
kts
20/11:30pm 24.6 23.8 18.4 68 3.9 SE 20 32 11 17 1017.5 1017.5 0.0
20/11:00pm 24.7 24.1 18.4 68 4.0 SSE 19 24 10 13 1017.7 1017.7 0.0
20/10:30pm 24.5 24.0 18.7 70 3.7 SSE 19 28 10 15 1017.9 1017.9 0.0
20/10:00pm 24.0 24.4 19.1 74 3.1 SSE 15 22 8 12 1017.9 1017.9 0.0
20/09:30pm 24.4 24.5 19.1 72 3.4 SSE 17 22 9 12 1018.0 1018.0 0.0
20/09:00pm 24.6 23.6 18.9 70 3.6 SE 22 30 12 16 1018.2 1018.2 0.0
20/08:30pm 24.9 23.2 18.9 69 3.8 ESE 26 37 14 20 1018.1 1018.1 0.0
20/08:00pm 25.1 24.7 18.8 68 4.0 SE 19 28 10 15 1017.9 1017.9 0.0

Other Formats:

Comma delimited format used in spreadsheet applications
http://www.bom.gov.au/fwo/IDQ60801/IDQ60801.94294.axf

JavaScript Object Notation format (JSON) in row-major order
http://www.bom.gov.au/fwo/IDQ60801/IDQ60801.94294.json